Time;durP1;ratioP1;P1;durP2;ratioP2;P2;SDS_P1;SDS_P2;PMS_P1;PMS_P2;Temp;Humidity;BMP_temperature;BMP_pressure;BME280_temperature;BME280_humidity;BME280_pressure;Samples;Min_cycle;Max_cycle;Signal;HPM_P1;HPM_P2
2022/06/26 00:01:58;;;;;;;2.38;1.70;;;;;;;;;;5074630;28;20074;-38
2022/06/26 00:04:23;;;;;;;4.80;2.00;;;;;;;;;;5073522;28;20043;-39
2022/06/26 00:06:48;;;;;;;3.22;1.90;;;;;;;;;;5074524;28;20036;-38
2022/06/26 00:09:14;;;;;;;2.33;1.92;;;;;;;;;;5074235;28;20063;-38
2022/06/26 00:11:39;;;;;;;5.60;1.95;;;;;;;;;;5074721;28;20032;-40
2022/06/26 00:14:05;;;;;;;2.78;1.88;;;;;;;;;;5074396;28;20084;-38
2022/06/26 00:16:30;;;;;;;3.47;1.83;;;;;;;;;;5074321;28;20056;-38
2022/06/26 00:18:56;;;;;;;4.50;2.08;;;;;;;;;;5073773;28;20482;-39
2022/06/26 00:21:22;;;;;;;3.40;2.08;;;;;;;;;;5074114;28;20020;-38
2022/06/26 00:23:47;;;;;;;5.63;1.88;;;;;;;;;;5073797;28;20472;-39
2022/06/26 00:26:13;;;;;;;2.00;1.85;;;;;;;;;;5074046;28;20056;-38
2022/06/26 00:28:38;;;;;;;1.75;1.65;;;;;;;;;;5074235;28;20026;-38
2022/06/26 00:31:03;;;;;;;7.70;1.85;;;;;;;;;;5074153;28;20488;-41
2022/06/26 00:33:29;;;;;;;1.80;1.70;;;;;;;;;;5074319;28;20025;-38
2022/06/26 00:35:54;;;;;;;2.92;1.90;;;;;;;;;;5074013;28;20036;-38
2022/06/26 00:38:20;;;;;;;3.92;1.73;;;;;;;;;;5074275;28;20028;-38
2022/06/26 00:40:45;;;;;;;1.92;1.70;;;;;;;;;;5073952;28;20029;-39
2022/06/26 00:43:11;;;;;;;2.40;1.75;;;;;;;;;;5073966;28;20024;-38
2022/06/26 00:45:36;;;;;;;3.47;2.10;;;;;;;;;;5073855;28;20017;-38
2022/06/26 00:48:02;;;;;;;2.88;1.92;;;;;;;;;;5073869;28;20032;-38
2022/06/26 00:50:27;;;;;;;6.40;1.95;;;;;;;;;;5073825;28;20029;-38
2022/06/26 00:52:54;;;;;;;2.65;1.77;;;;;;;;;;5073776;28;20528;-39
2022/06/26 00:55:20;;;;;;;2.10;1.90;;;;;;;;;;5073672;28;20055;-38
2022/06/26 00:57:46;;;;;;;3.40;2.00;;;;;;;;;;5073721;28;20024;-39
2022/06/26 01:00:13;;;;;;;3.05;1.80;;;;;;;;;;5073596;28;20103;-38
2022/06/26 01:02:39;;;;;;;2.45;1.80;;;;;;;;;;5073874;28;20082;-39
2022/06/26 01:05:06;;;;;;;2.90;1.88;;;;;;;;;;5073478;28;20039;-39
2022/06/26 01:07:32;;;;;;;2.10;1.90;;;;;;;;;;5073441;28;20025;-38
2022/06/26 01:09:57;;;;;;;2.00;1.80;;;;;;;;;;5073722;28;20119;-39
2022/06/26 01:12:23;;;;;;;1.80;1.70;;;;;;;;;;5073642;28;20029;-39
2022/06/26 01:14:50;;;;;;;2.53;1.90;;;;;;;;;;5073277;28;20392;-38
2022/06/26 01:17:16;;;;;;;3.67;1.60;;;;;;;;;;5073306;28;20028;-39
2022/06/26 01:19:42;;;;;;;2.42;2.22;;;;;;;;;;5072813;28;20037;-38
2022/06/26 01:22:08;;;;;;;1.65;1.50;;;;;;;;;;5073184;28;20033;-38
2022/06/26 01:24:33;;;;;;;2.13;1.92;;;;;;;;;;5073154;28;20082;-40
2022/06/26 01:27:00;;;;;;;3.25;1.50;;;;;;;;;;5072920;28;20086;-40
2022/06/26 01:29:26;;;;;;;3.67;1.67;;;;;;;;;;5073029;28;20025;-38
2022/06/26 01:31:51;;;;;;;5.88;1.88;;;;;;;;;;5073034;28;20024;-38
2022/06/26 01:34:17;;;;;;;2.10;1.73;;;;;;;;;;5071927;28;20032;-38
2022/06/26 01:36:42;;;;;;;2.13;1.90;;;;;;;;;;5072931;28;20028;-38
2022/06/26 01:39:08;;;;;;;1.73;1.60;;;;;;;;;;5072891;28;20074;-39
2022/06/26 01:41:33;;;;;;;2.10;1.75;;;;;;;;;;5072938;28;20020;-38
2022/06/26 01:43:59;;;;;;;2.13;1.90;;;;;;;;;;5072823;28;20362;-40
2022/06/26 01:46:25;;;;;;;3.42;2.00;;;;;;;;;;5073029;28;20040;-40
2022/06/26 01:48:51;;;;;;;4.03;2.00;;;;;;;;;;5071772;28;20438;-40
2022/06/26 01:51:17;;;;;;;1.88;1.77;;;;;;;;;;5072956;28;20117;-38
2022/06/26 01:53:42;;;;;;;4.80;2.10;;;;;;;;;;5072655;28;20052;-42
2022/06/26 01:56:08;;;;;;;2.00;1.90;;;;;;;;;;5072566;28;20025;-40
2022/06/26 01:58:34;;;;;;;3.40;1.92;;;;;;;;;;5072647;28;20021;-38
2022/06/26 02:01:00;;;;;;;2.20;2.10;;;;;;;;;;5071350;28;20025;-39
2022/06/26 02:03:27;;;;;;;2.40;2.08;;;;;;;;;;5072615;28;20036;-38
2022/06/26 02:05:52;;;;;;;3.42;2.00;;;;;;;;;;5072526;28;20055;-38
2022/06/26 02:08:18;;;;;;;2.25;2.05;;;;;;;;;;5072548;28;20124;-39
2022/06/26 02:13:42;;;;;;;2.30;1.80;;;;;;;;;;5072831;28;20055;-39
2022/06/26 02:16:14;;;;;;;2.22;2.03;;;;;;;;;;5072428;28;20035;-39
2022/06/26 02:18:42;;;;;;;2.45;1.90;;;;;;;;;;5072748;28;20081;-38
2022/06/26 02:21:15;;;;;;;4.55;1.88;;;;;;;;;;5072420;28;20027;-38
2022/06/26 02:23:41;;;;;;;2.88;2.05;;;;;;;;;;5072703;28;20028;-38
2022/06/26 02:26:07;;;;;;;2.10;1.90;;;;;;;;;;5072260;28;20057;-38
2022/06/26 02:28:35;;;;;;;4.07;1.80;;;;;;;;;;5072331;28;20025;-38
2022/06/26 02:31:00;;;;;;;1.52;1.42;;;;;;;;;;5073844;28;20047;-39
2022/06/26 02:33:26;;;;;;;2.10;1.90;;;;;;;;;;5076429;28;20461;-38
2022/06/26 02:35:55;;;;;;;1.90;1.73;;;;;;;;;;5076242;28;20555;-39
2022/06/26 02:38:21;;;;;;;1.95;1.83;;;;;;;;;;5076362;28;20082;-38
2022/06/26 02:40:47;;;;;;;2.00;1.60;;;;;;;;;;5076586;28;20025;-39
2022/06/26 02:43:12;;;;;;;2.05;1.65;;;;;;;;;;5076539;28;20047;-39
2022/06/26 02:45:38;;;;;;;2.33;1.90;;;;;;;;;;5076260;28;20399;-38
2022/06/26 02:48:03;;;;;;;3.25;1.92;;;;;;;;;;5076467;28;20037;-38
2022/06/26 02:50:29;;;;;;;2.58;1.60;;;;;;;;;;5076082;28;20479;-38
2022/06/26 02:52:55;;;;;;;2.15;1.95;;;;;;;;;;5076350;28;20074;-39
2022/06/26 02:55:20;;;;;;;8.07;1.90;;;;;;;;;;5075974;28;20052;-38
2022/06/26 02:57:45;;;;;;;3.40;1.80;;;;;;;;;;5076014;28;20073;-38
2022/06/26 03:00:13;;;;;;;2.40;2.00;;;;;;;;;;5076259;28;20028;-38
2022/06/26 03:02:39;;;;;;;4.20;1.80;;;;;;;;;;5076154;28;20024;-39
2022/06/26 03:05:05;;;;;;;3.17;1.95;;;;;;;;;;5076105;28;20051;-38
2022/06/26 03:07:31;;;;;;;3.70;1.80;;;;;;;;;;5075688;28;20041;-38
2022/06/26 03:09:56;;;;;;;4.65;2.70;;;;;;;;;;5076015;28;20138;-38
2022/06/26 03:12:21;;;;;;;5.18;2.28;;;;;;;;;;5075670;28;20029;-39
2022/06/26 03:14:47;;;;;;;3.53;1.90;;;;;;;;;;5075474;28;20021;-38
2022/06/26 03:17:12;;;;;;;4.28;1.90;;;;;;;;;;5075816;28;20032;-39
2022/06/26 03:19:38;;;;;;;3.25;2.10;;;;;;;;;;5075548;28;20028;-38
2022/06/26 03:22:04;;;;;;;3.95;1.88;;;;;;;;;;5075370;28;20028;-39
2022/06/26 03:24:30;;;;;;;3.45;1.90;;;;;;;;;;5075432;28;20028;-39
2022/06/26 03:26:55;;;;;;;3.72;1.88;;;;;;;;;;5075251;28;20044;-39
2022/06/26 03:29:20;;;;;;;3.28;1.70;;;;;;;;;;5075310;28;20031;-38
2022/06/26 03:31:46;;;;;;;4.68;1.88;;;;;;;;;;5075398;28;20024;-38
2022/06/26 03:34:11;;;;;;;3.63;1.67;;;;;;;;;;5075182;28;20020;-38
2022/06/26 03:36:37;;;;;;;5.72;1.80;;;;;;;;;;5075528;28;20069;-41
2022/06/26 03:39:03;;;;;;;2.30;1.70;;;;;;;;;;5075249;28;20476;-38
2022/06/26 03:41:28;;;;;;;2.00;1.65;;;;;;;;;;5075367;28;20085;-38
2022/06/26 03:43:54;;;;;;;3.90;1.70;;;;;;;;;;5074445;28;20068;-39
2022/06/26 03:46:19;;;;;;;4.63;1.92;;;;;;;;;;5075055;28;20029;-38
2022/06/26 03:48:45;;;;;;;1.73;1.60;;;;;;;;;;5075048;28;20024;-38
2022/06/26 03:51:11;;;;;;;5.13;1.88;;;;;;;;;;5075024;28;20016;-40
2022/06/26 03:53:37;;;;;;;7.30;1.70;;;;;;;;;;5075181;28;20123;-38
2022/06/26 03:56:03;;;;;;;1.95;1.70;;;;;;;;;;5073580;28;20150;-38
2022/06/26 03:58:29;;;;;;;1.60;1.50;;;;;;;;;;5074887;28;20027;-42
2022/06/26 04:00:55;;;;;;;7.05;2.10;;;;;;;;;;5074810;28;20127;-39
2022/06/26 04:03:21;;;;;;;2.13;1.58;;;;;;;;;;5075063;28;20146;-39
2022/06/26 04:05:47;;;;;;;5.43;1.80;;;;;;;;;;5075013;28;20082;-38
2022/06/26 04:08:13;;;;;;;8.85;2.33;;;;;;;;;;5074644;28;20028;-39
2022/06/26 04:10:38;;;;;;;8.02;1.90;;;;;;;;;;5074677;28;20493;-39
2022/06/26 04:13:06;;;;;;;1.98;1.60;;;;;;;;;;5074801;28;20102;-39
2022/06/26 04:15:33;;;;;;;2.78;1.80;;;;;;;;;;5074504;28;20082;-39
2022/06/26 04:18:00;;;;;;;2.95;1.58;;;;;;;;;;5074793;28;20048;-39
2022/06/26 04:20:25;;;;;;;2.45;1.90;;;;;;;;;;5074718;28;20392;-39
2022/06/26 04:23:10;;;;;;;2.90;1.48;;;;;;;;;;5074404;28;20028;-40
2022/06/26 04:25:38;;;;;;;4.57;1.50;;;;;;;;;;5074152;28;20400;-39
2022/06/26 04:28:05;;;;;;;1.88;1.50;;;;;;;;;;5074310;28;20025;-39
2022/06/26 04:30:31;;;;;;;1.52;1.42;;;;;;;;;;5074496;28;20376;-41
2022/06/26 04:32:57;;;;;;;1.95;1.42;;;;;;;;;;5074197;28;20020;-39
2022/06/26 04:35:22;;;;;;;2.60;1.58;;;;;;;;;;5074149;28;20614;-39
2022/06/26 04:37:48;;;;;;;2.05;1.60;;;;;;;;;;5074172;28;20488;-39
2022/06/26 04:40:14;;;;;;;1.58;1.45;;;;;;;;;;5074073;28;20404;-39
2022/06/26 04:42:40;;;;;;;1.70;1.40;;;;;;;;;;5074229;28;20107;-40
2022/06/26 04:45:06;;;;;;;3.92;1.35;;;;;;;;;;5073885;28;20476;-39
2022/06/26 04:47:32;;;;;;;1.38;1.23;;;;;;;;;;5073822;28;20056;-40
2022/06/26 04:49:57;;;;;;;1.50;1.40;;;;;;;;;;5074139;28;20055;-40
2022/06/26 04:52:23;;;;;;;2.38;1.35;;;;;;;;;;5073742;28;20020;-40
2022/06/26 04:54:50;;;;;;;2.67;1.40;;;;;;;;;;5072611;28;20037;-39
2022/06/26 04:57:16;;;;;;;1.50;1.40;;;;;;;;;;5073681;28;20470;-40
2022/06/26 04:59:43;;;;;;;2.00;1.38;;;;;;;;;;5073688;28;20031;-40
2022/06/26 05:02:09;;;;;;;3.00;1.75;;;;;;;;;;5073647;28;20032;-38
2022/06/26 05:04:35;;;;;;;2.25;1.48;;;;;;;;;;5073531;28;20064;-39
2022/06/26 05:07:00;;;;;;;1.80;1.50;;;;;;;;;;5073826;28;20058;-39
2022/06/26 05:09:26;;;;;;;1.50;1.40;;;;;;;;;;5073430;28;20075;-40
2022/06/26 05:11:51;;;;;;;1.40;1.30;;;;;;;;;;5073366;28;20147;-40
2022/06/26 05:14:17;;;;;;;3.17;1.65;;;;;;;;;;5073248;28;20074;-41
2022/06/26 05:16:43;;;;;;;1.85;1.75;;;;;;;;;;5073652;28;20025;-40
2022/06/26 05:19:08;;;;;;;2.67;2.13;;;;;;;;;;5073205;28;20488;-40
2022/06/26 05:21:34;;;;;;;1.85;1.70;;;;;;;;;;5073259;28;20036;-40
2022/06/26 05:23:59;;;;;;;5.35;3.40;;;;;;;;;;5073443;28;20039;-40
2022/06/26 05:26:25;;;;;;;9.18;4.78;;;;;;;;;;5072972;28;20082;-43
2022/06/26 05:28:50;;;;;;;11.80;5.00;;;;;;;;;;5073103;28;20463;-42
2022/06/26 05:31:16;;;;;;;5.93;3.75;;;;;;;;;;5073349;28;20062;-39
2022/06/26 05:33:42;;;;;;;6.28;3.45;;;;;;;;;;5073032;28;20020;-39
2022/06/26 05:36:08;;;;;;;6.22;3.25;;;;;;;;;;5072872;28;20031;-39
2022/06/26 05:38:34;;;;;;;8.75;3.13;;;;;;;;;;5073154;28;20033;-39
2022/06/26 05:40:59;;;;;;;12.57;3.22;;;;;;;;;;5073172;28;20419;-39
2022/06/26 05:43:25;;;;;;;5.43;3.08;;;;;;;;;;5073101;28;20028;-44
2022/06/26 05:45:51;;;;;;;6.88;3.63;;;;;;;;;;5073088;28;20035;-43
2022/06/26 05:48:17;;;;;;;5.28;3.30;;;;;;;;;;5072720;28;20601;-41
2022/06/26 05:50:42;;;;;;;4.78;3.38;;;;;;;;;;5072798;28;20067;-40
2022/06/26 05:53:07;;;;;;;10.07;4.60;;;;;;;;;;5072732;28;20021;-42
2022/06/26 05:55:33;;;;;;;9.90;4.40;;;;;;;;;;5072891;28;20166;-39
2022/06/26 05:57:59;;;;;;;6.93;4.55;;;;;;;;;;5072908;28;20044;-42
2022/06/26 06:00:24;;;;;;;8.57;5.22;;;;;;;;;;5072710;28;20369;-39
2022/06/26 06:02:50;;;;;;;8.85;4.00;;;;;;;;;;5072875;28;20048;-39
2022/06/26 06:05:15;;;;;;;6.40;4.38;;;;;;;;;;5072333;28;20367;-39
2022/06/26 06:07:41;;;;;;;8.48;4.40;;;;;;;;;;5072843;28;20054;-39
2022/06/26 06:10:08;;;;;;;5.38;4.20;;;;;;;;;;5071512;28;20086;-37
2022/06/26 06:12:34;;;;;;;9.55;4.30;;;;;;;;;;5072400;28;20032;-38
2022/06/26 06:14:59;;;;;;;6.68;4.15;;;;;;;;;;5072352;28;20028;-39
2022/06/26 06:17:37;;;;;;;5.32;3.60;;;;;;;;;;5072391;28;20086;-38
2022/06/26 06:20:06;;;;;;;4.40;2.87;;;;;;;;;;5072718;28;20078;-37
2022/06/26 06:22:31;;;;;;;5.25;3.40;;;;;;;;;;5072385;28;20312;-39
2022/06/26 06:24:57;;;;;;;7.40;3.47;;;;;;;;;;5072821;28;20033;-42
2022/06/26 06:27:24;;;;;;;5.03;3.10;;;;;;;;;;5071459;28;20052;-41
2022/06/26 06:29:49;;;;;;;3.53;2.83;;;;;;;;;;5072614;28;20037;-40
2022/06/26 06:32:15;;;;;;;5.05;3.22;;;;;;;;;;5072338;28;20021;-39
2022/06/26 06:34:40;;;;;;;5.35;3.55;;;;;;;;;;5072481;28;20027;-40
2022/06/26 06:37:06;;;;;;;4.80;2.50;;;;;;;;;;5072329;28;20625;-42
2022/06/26 06:39:32;;;;;;;4.53;2.40;;;;;;;;;;5072556;28;20035;-38
2022/06/26 06:41:57;;;;;;;4.88;2.05;;;;;;;;;;5072543;28;20105;-38
2022/06/26 06:44:22;;;;;;;1.80;1.60;;;;;;;;;;5072503;28;20439;-40
2022/06/26 06:46:48;;;;;;;1.50;1.40;;;;;;;;;;5072502;28;20550;-38
2022/06/26 06:49:13;;;;;;;2.13;1.48;;;;;;;;;;5072137;28;20380;-40
2022/06/26 06:51:39;;;;;;;1.73;1.50;;;;;;;;;;5072447;28;20468;-38
2022/06/26 06:54:04;;;;;;;1.67;1.30;;;;;;;;;;5072154;28;20047;-38
2022/06/26 06:56:30;;;;;;;1.70;1.40;;;;;;;;;;5072345;28;20032;-37
2022/06/26 06:58:55;;;;;;;2.83;1.20;;;;;;;;;;5072055;28;20021;-39
2022/06/26 07:01:21;;;;;;;1.73;1.27;;;;;;;;;;5072083;28;20581;-41
2022/06/26 07:03:46;;;;;;;2.47;1.75;;;;;;;;;;5071904;28;20033;-38
2022/06/26 07:06:11;;;;;;;3.03;1.48;;;;;;;;;;5070793;28;20052;-44
2022/06/26 07:08:37;;;;;;;1.60;1.50;;;;;;;;;;5070646;28;20024;-39
2022/06/26 07:11:02;;;;;;;1.92;1.50;;;;;;;;;;5070926;28;20017;-39
2022/06/26 07:13:27;;;;;;;3.35;1.85;;;;;;;;;;5070385;28;20464;-39
2022/06/26 07:15:53;;;;;;;2.58;1.33;;;;;;;;;;5070313;28;20035;-41
2022/06/26 07:18:18;;;;;;;2.90;1.77;;;;;;;;;;5072550;28;20029;-40
2022/06/26 07:20:44;;;;;;;1.90;1.75;;;;;;;;;;5074391;28;20022;-40
2022/06/26 07:23:09;;;;;;;1.23;1.13;;;;;;;;;;5074515;28;20099;-40
2022/06/26 07:25:34;;;;;;;3.25;1.52;;;;;;;;;;5074751;28;20136;-39
2022/06/26 07:28:00;;;;;;;1.17;1.17;;;;;;;;;;5075501;28;20496;-39
2022/06/26 07:30:25;;;;;;;1.10;1.10;;;;;;;;;;5075651;28;20024;-40
2022/06/26 07:32:51;;;;;;;1.10;1.10;;;;;;;;;;5075595;28;20047;-38
2022/06/26 07:35:16;;;;;;;1.42;1.25;;;;;;;;;;5075254;28;20035;-38
2022/06/26 07:37:46;;;;;;;1.05;1.05;;;;;;;;;;5075305;28;20017;-39
2022/06/26 07:40:11;;;;;;;1.30;1.20;;;;;;;;;;5075516;28;20047;-37
2022/06/26 07:42:37;;;;;;;1.33;1.08;;;;;;;;;;5075103;28;20476;-39
2022/06/26 07:45:03;;;;;;;1.00;1.00;;;;;;;;;;5073875;28;20033;-41
2022/06/26 07:47:28;;;;;;;1.13;1.00;;;;;;;;;;5075382;28;20033;-38
2022/06/26 07:49:54;;;;;;;1.15;1.08;;;;;;;;;;5074987;28;20032;-38
2022/06/26 07:52:20;;;;;;;0.93;0.90;;;;;;;;;;5075273;28;20472;-38
2022/06/26 07:54:45;;;;;;;1.38;0.95;;;;;;;;;;5074854;28;20073;-37
2022/06/26 07:57:11;;;;;;;0.80;0.80;;;;;;;;;;5073748;28;20025;-39
2022/06/26 07:59:36;;;;;;;0.90;0.90;;;;;;;;;;5075132;28;20024;-38
2022/06/26 08:02:02;;;;;;;2.03;0.80;;;;;;;;;;5075087;28;20024;-39
2022/06/26 08:04:27;;;;;;;0.85;0.85;;;;;;;;;;5074779;28;20048;-41
2022/06/26 08:06:52;;;;;;;1.00;1.00;;;;;;;;;;5074771;28;20099;-39
2022/06/26 08:09:18;;;;;;;0.98;0.75;;;;;;;;;;5074686;28;20029;-40
2022/06/26 08:11:43;;;;;;;0.82;0.80;;;;;;;;;;5074628;28;20031;-41
2022/06/26 08:14:09;;;;;;;1.10;0.90;;;;;;;;;;5074631;28;20112;-41
2022/06/26 08:16:34;;;;;;;0.80;0.80;;;;;;;;;;5074543;28;20032;-38
2022/06/26 08:18:59;;;;;;;0.80;0.80;;;;;;;;;;5074453;28;20111;-38
2022/06/26 08:24:09;;;;;;;3.28;0.90;;;;;;;;;;5074462;28;20032;-41
2022/06/26 08:26:34;;;;;;;1.52;0.80;;;;;;;;;;5074220;28;20057;-41
2022/06/26 08:29:00;;;;;;;0.85;0.85;;;;;;;;;;5074125;28;20024;-37
2022/06/26 08:31:26;;;;;;;0.80;0.80;;;;;;;;;;5074306;28;20103;-38
2022/06/26 08:33:51;;;;;;;0.70;0.70;;;;;;;;;;5074091;28;20028;-38
2022/06/26 08:36:16;;;;;;;0.80;0.80;;;;;;;;;;5073998;28;20028;-37
2022/06/26 08:38:44;;;;;;;0.88;0.80;;;;;;;;;;5073940;28;20029;-40
2022/06/26 08:41:12;;;;;;;2.63;0.93;;;;;;;;;;5074232;28;20104;-42
2022/06/26 08:43:39;;;;;;;0.80;0.80;;;;;;;;;;5074000;28;20025;-40
2022/06/26 08:46:05;;;;;;;2.10;0.70;;;;;;;;;;5073952;28;20127;-37
2022/06/26 08:48:47;;;;;;;2.33;0.80;;;;;;;;;;5073900;28;20488;-40
2022/06/26 08:51:13;;;;;;;0.80;0.80;;;;;;;;;;5073867;28;20021;-38
2022/06/26 08:53:39;;;;;;;1.23;0.75;;;;;;;;;;5073775;28;20027;-43
2022/06/26 08:56:04;;;;;;;0.73;0.73;;;;;;;;;;5073728;28;20036;-44
2022/06/26 08:58:30;;;;;;;1.30;0.80;;;;;;;;;;5073699;28;20036;-38
2022/06/26 09:00:56;;;;;;;1.10;1.00;;;;;;;;;;5073537;28;20024;-37
2022/06/26 09:03:21;;;;;;;1.30;0.75;;;;;;;;;;5073553;28;20125;-43
2022/06/26 09:05:46;;;;;;;0.70;0.70;;;;;;;;;;5073624;28;20361;-38
2022/06/26 09:08:19;;;;;;;0.68;0.68;;;;;;;;;;5073394;28;20081;-40
2022/06/26 09:10:47;;;;;;;1.27;0.90;;;;;;;;;;5073424;28;20499;-37
2022/06/26 09:13:13;;;;;;;0.70;0.70;;;;;;;;;;5073387;28;20028;-38
2022/06/26 09:15:43;;;;;;;1.48;0.70;;;;;;;;;;5071965;28;20043;-37
2022/06/26 09:18:11;;;;;;;0.60;0.60;;;;;;;;;;5073574;28;20028;-38
2022/06/26 09:20:48;;;;;;;0.95;0.73;;;;;;;;;;5073208;28;20029;-37
2022/06/26 09:23:15;;;;;;;0.85;0.73;;;;;;;;;;5073266;28;20431;-40
2022/06/26 09:25:45;;;;;;;1.10;0.70;;;;;;;;;;5072941;28;20048;-37
2022/06/26 09:28:14;;;;;;;0.80;0.80;;;;;;;;;;5073167;28;20480;-37
2022/06/26 09:30:50;;;;;;;0.80;0.80;;;;;;;;;;5073101;28;20111;-37
2022/06/26 09:33:18;;;;;;;0.88;0.70;;;;;;;;;;5073238;28;20028;-41
2022/06/26 09:35:44;;;;;;;0.70;0.70;;;;;;;;;;5072849;28;20473;-38
2022/06/26 09:38:09;;;;;;;1.55;0.75;;;;;;;;;;5073166;28;20104;-38
2022/06/26 09:40:35;;;;;;;0.70;0.70;;;;;;;;;;5072273;28;20020;-41
2022/06/26 09:43:00;;;;;;;0.65;0.65;;;;;;;;;;5073139;28;20082;-41
2022/06/26 09:45:26;;;;;;;0.80;0.80;;;;;;;;;;5071586;28;20380;-38
2022/06/26 09:47:52;;;;;;;2.15;0.80;;;;;;;;;;5072743;28;20467;-41
2022/06/26 09:50:18;;;;;;;0.85;0.80;;;;;;;;;;5071603;28;20104;-38
2022/06/26 09:52:45;;;;;;;1.98;0.80;;;;;;;;;;5071767;28;20024;-38
2022/06/26 09:55:11;;;;;;;2.38;0.75;;;;;;;;;;5072856;28;20055;-39
2022/06/26 09:57:37;;;;;;;1.95;0.77;;;;;;;;;;5072991;28;20115;-38
2022/06/26 10:00:04;;;;;;;1.08;0.70;;;;;;;;;;5072947;28;20109;-40
2022/06/26 10:08:06;;;;;;;0.70;0.70;;;;;;;;;;5072746;28;20028;-40
2022/06/26 10:10:33;;;;;;;1.80;0.70;;;;;;;;;;5072379;28;20016;-38
2022/06/26 10:13:02;;;;;;;2.08;0.70;;;;;;;;;;5071487;28;20266;-38
2022/06/26 10:15:34;;;;;;;2.58;0.77;;;;;;;;;;5072444;28;20075;-39
2022/06/26 10:18:17;;;;;;;2.22;0.60;;;;;;;;;;5072533;28;20119;-37
2022/06/26 10:20:45;;;;;;;1.20;0.70;;;;;;;;;;5072536;28;20027;-37
2022/06/26 10:23:11;;;;;;;1.40;0.90;;;;;;;;;;5071206;28;20025;-37
2022/06/26 10:25:36;;;;;;;1.75;0.80;;;;;;;;;;5072466;28;20045;-38
2022/06/26 10:28:02;;;;;;;0.75;0.75;;;;;;;;;;5072585;28;20028;-41
2022/06/26 10:30:30;;;;;;;2.97;0.90;;;;;;;;;;5072567;28;20025;-40
2022/06/26 10:33:16;;;;;;;2.72;0.98;;;;;;;;;;5072561;28;20028;-38
2022/06/26 10:35:54;;;;;;;1.45;0.70;;;;;;;;;;5072267;28;20031;-38
2022/06/26 10:38:25;;;;;;;1.70;0.90;;;;;;;;;;5072531;28;20029;-37
2022/06/26 10:43:59;;;;;;;1.65;0.70;;;;;;;;;;5072366;28;20102;-41
2022/06/26 10:46:25;;;;;;;0.70;0.70;;;;;;;;;;5072095;28;20036;-40
2022/06/26 10:48:54;;;;;;;1.20;0.77;;;;;;;;;;5072359;28;20032;-38
2022/06/26 10:51:30;;;;;;;0.70;0.70;;;;;;;;;;5072652;28;20024;-38
2022/06/26 10:53:55;;;;;;;11.35;0.90;;;;;;;;;;5075928;28;20067;-38
2022/06/26 10:56:21;;;;;;;1.20;0.80;;;;;;;;;;5075823;28;20055;-41
2022/06/26 10:58:48;;;;;;;0.70;0.70;;;;;;;;;;5075943;28;20024;-39
2022/06/26 11:01:15;;;;;;;2.25;0.70;;;;;;;;;;5075907;28;20028;-38
2022/06/26 11:03:41;;;;;;;1.02;0.90;;;;;;;;;;5075912;28;20358;-38
2022/06/26 11:06:12;;;;;;;1.17;1.02;;;;;;;;;;5076063;28;20028;-38
2022/06/26 11:08:47;;;;;;;0.73;0.70;;;;;;;;;;5076087;28;20033;-40
2022/06/26 11:11:17;;;;;;;0.80;0.80;;;;;;;;;;5075649;28;20024;-38
2022/06/26 11:14:06;;;;;;;1.75;0.77;;;;;;;;;;5075744;28;20032;-37
2022/06/26 11:16:43;;;;;;;0.70;0.63;;;;;;;;;;5075549;28;20506;-38
2022/06/26 11:19:24;;;;;;;0.75;0.75;;;;;;;;;;5075626;28;20056;-40
2022/06/26 11:21:49;;;;;;;0.70;0.70;;;;;;;;;;5075551;28;20028;-38
2022/06/26 11:24:15;;;;;;;1.10;1.00;;;;;;;;;;5075716;28;20029;-39
2022/06/26 11:26:40;;;;;;;0.77;0.77;;;;;;;;;;5075274;28;20500;-39
2022/06/26 11:29:09;;;;;;;5.25;0.80;;;;;;;;;;5075362;28;20028;-38
2022/06/26 11:31:35;;;;;;;0.93;0.73;;;;;;;;;;5075340;28;20059;-38
2022/06/26 11:34:15;;;;;;;0.75;0.75;;;;;;;;;;5075252;28;20033;-38
2022/06/26 11:36:55;;;;;;;0.70;0.70;;;;;;;;;;5075233;28;20029;-39
2022/06/26 11:39:22;;;;;;;0.70;0.70;;;;;;;;;;5075525;28;20085;-38
2022/06/26 11:41:47;;;;;;;2.65;0.77;;;;;;;;;;5075209;28;20021;-38
2022/06/26 11:44:13;;;;;;;1.05;0.90;;;;;;;;;;5075354;28;20021;-41
2022/06/26 11:46:39;;;;;;;0.65;0.65;;;;;;;;;;5073629;28;20043;-45
2022/06/26 11:49:04;;;;;;;1.00;0.90;;;;;;;;;;5074592;28;20028;-39
2022/06/26 11:51:32;;;;;;;0.60;0.60;;;;;;;;;;5075228;28;20424;-41
2022/06/26 11:53:58;;;;;;;0.70;0.70;;;;;;;;;;5074872;28;20025;-42
2022/06/26 11:56:26;;;;;;;0.70;0.70;;;;;;;;;;5074734;28;20037;-39
2022/06/26 11:58:55;;;;;;;0.80;0.80;;;;;;;;;;5056771;28;20032;-41
2022/06/26 12:01:21;;;;;;;0.70;0.70;;;;;;;;;;5074772;28;20103;-38
2022/06/26 12:03:46;;;;;;;0.80;0.80;;;;;;;;;;5074413;28;20032;-39
2022/06/26 12:06:13;;;;;;;1.33;0.60;;;;;;;;;;5074698;28;20028;-44
2022/06/26 12:08:38;;;;;;;0.90;0.90;;;;;;;;;;5074626;28;20028;-40
2022/06/26 12:11:04;;;;;;;2.53;0.73;;;;;;;;;;5074872;28;20601;-39
2022/06/26 12:13:33;;;;;;;3.65;0.80;;;;;;;;;;5074831;28;20052;-39
2022/06/26 12:16:10;;;;;;;1.23;0.88;;;;;;;;;;5074261;28;20262;-38
2022/06/26 12:18:39;;;;;;;1.33;0.82;;;;;;;;;;5074516;28;20028;-39
2022/06/26 12:21:15;;;;;;;2.47;0.90;;;;;;;;;;5074727;28;20166;-38
2022/06/26 12:23:44;;;;;;;4.03;0.77;;;;;;;;;;5073111;28;20028;-46
2022/06/26 12:26:13;;;;;;;3.47;1.00;;;;;;;;;;5071988;28;20403;-38
2022/06/26 12:28:50;;;;;;;0.85;0.82;;;;;;;;;;5074390;28;20476;-40
2022/06/26 12:31:19;;;;;;;0.70;0.70;;;;;;;;;;5072835;28;20024;-39
2022/06/26 12:33:49;;;;;;;1.45;0.60;;;;;;;;;;5073697;28;20048;-39
2022/06/26 12:36:16;;;;;;;0.70;0.70;;;;;;;;;;5074033;28;20475;-40
2022/06/26 12:38:43;;;;;;;1.67;0.80;;;;;;;;;;5072797;28;20032;-40
2022/06/26 12:41:16;;;;;;;1.08;0.80;;;;;;;;;;5074230;28;20028;-40
2022/06/26 12:43:49;;;;;;;1.30;0.80;;;;;;;;;;5073916;28;20025;-38
2022/06/26 12:46:19;;;;;;;0.90;0.90;;;;;;;;;;5074319;28;20040;-38
2022/06/26 12:48:44;;;;;;;;;;;;;;;;;;5074331;28;20029;-38
2022/06/26 12:51:10;;;;;;;1.45;0.80;;;;;;;;;;5074023;28;20435;-36
2022/06/26 12:53:37;;;;;;;0.98;0.82;;;;;;;;;;5074179;28;20483;-35
2022/06/26 12:56:03;;;;;;;0.98;0.77;;;;;;;;;;5072328;28;20499;-36
2022/06/26 12:58:28;;;;;;;0.80;0.80;;;;;;;;;;5074034;28;20031;-35
2022/06/26 13:00:54;;;;;;;3.05;0.82;;;;;;;;;;5073655;28;20028;-36
2022/06/26 13:03:21;;;;;;;3.47;0.93;;;;;;;;;;5073693;28;20024;-37
2022/06/26 13:05:47;;;;;;;0.98;0.98;;;;;;;;;;5072385;28;20048;-37
2022/06/26 13:08:14;;;;;;;1.58;0.85;;;;;;;;;;5072913;28;20025;-37
2022/06/26 13:10:44;;;;;;;1.75;0.88;;;;;;;;;;5073479;28;20039;-35
2022/06/26 13:13:09;;;;;;;1.85;0.80;;;;;;;;;;5073398;28;20031;-38
2022/06/26 13:15:35;;;;;;;0.93;0.80;;;;;;;;;;5072418;28;20032;-36
2022/06/26 13:18:01;;;;;;;1.77;0.88;;;;;;;;;;5073340;28;20067;-37
2022/06/26 13:20:27;;;;;;;2.15;0.75;;;;;;;;;;5073292;28;20116;-38
2022/06/26 13:22:52;;;;;;;7.22;1.15;;;;;;;;;;5073298;28;20020;-41
2022/06/26 13:25:18;;;;;;;1.15;1.00;;;;;;;;;;5072795;28;20032;-39
2022/06/26 13:27:43;;;;;;;0.90;0.90;;;;;;;;;;5073235;28;20032;-38
2022/06/26 13:30:09;;;;;;;0.80;0.80;;;;;;;;;;5071553;28;20105;-38
2022/06/26 13:32:35;;;;;;;0.80;0.80;;;;;;;;;;5072232;28;20056;-37
2022/06/26 13:35:01;;;;;;;2.55;0.90;;;;;;;;;;5072298;28;20059;-38
2022/06/26 13:37:26;;;;;;;1.92;0.90;;;;;;;;;;5071932;28;20032;-38
2022/06/26 13:39:52;;;;;;;1.30;1.00;;;;;;;;;;5072239;28;20066;-38
2022/06/26 13:42:18;;;;;;;0.90;0.90;;;;;;;;;;5072213;28;20048;-38
2022/06/26 13:44:43;;;;;;;1.42;0.88;;;;;;;;;;5072369;28;20027;-38
2022/06/26 13:47:09;;;;;;;1.80;0.98;;;;;;;;;;5072745;28;20100;-38
2022/06/26 13:49:36;;;;;;;1.75;0.98;;;;;;;;;;5072764;28;20028;-39
2022/06/26 13:52:03;;;;;;;1.08;0.80;;;;;;;;;;5072821;28;20109;-38
2022/06/26 13:54:28;;;;;;;2.15;1.00;;;;;;;;;;5072167;28;20380;-38
2022/06/26 13:56:53;;;;;;;1.00;0.90;;;;;;;;;;5073071;28;20103;-39
2022/06/26 13:59:21;;;;;;;3.38;1.15;;;;;;;;;;5072999;28;20032;-38
2022/06/26 14:01:46;;;;;;;2.80;0.95;;;;;;;;;;5072612;28;20024;-38
2022/06/26 14:04:11;;;;;;;2.15;1.20;;;;;;;;;;5072974;28;20028;-38
2022/06/26 14:06:37;;;;;;;3.28;1.10;;;;;;;;;;5072676;28;20380;-38
2022/06/26 14:09:02;;;;;;;4.00;1.00;;;;;;;;;;5072634;28;20055;-38
2022/06/26 14:11:28;;;;;;;2.20;0.82;;;;;;;;;;5072566;28;20426;-39
2022/06/26 14:13:53;;;;;;;1.08;1.08;;;;;;;;;;5072557;28;20052;-38
2022/06/26 14:16:19;;;;;;;1.25;0.90;;;;;;;;;;5072713;28;20024;-38
2022/06/26 14:18:44;;;;;;;1.80;1.10;;;;;;;;;;5072802;28;20028;-38
2022/06/26 14:21:10;;;;;;;3.65;0.90;;;;;;;;;;5072402;28;20087;-38
2022/06/26 14:26:20;;;;;;;1.65;1.02;;;;;;;;;;5072167;28;20562;-38
2022/06/26 14:28:47;;;;;;;1.30;0.88;;;;;;;;;;5072674;28;20037;-39
2022/06/26 14:31:13;;;;;;;0.90;0.90;;;;;;;;;;5072623;28;20020;-38
2022/06/26 14:33:38;;;;;;;3.05;0.93;;;;;;;;;;5072591;28;20032;-38
2022/06/26 14:36:07;;;;;;;7.13;1.17;;;;;;;;;;5072303;28;20029;-39
2022/06/26 14:38:33;;;;;;;8.10;1.30;;;;;;;;;;5072359;28;20162;-38
2022/06/26 14:41:01;;;;;;;0.98;0.90;;;;;;;;;;5072327;28;20682;-39
2022/06/26 14:43:27;;;;;;;2.58;1.02;;;;;;;;;;5072531;28;20029;-39
2022/06/26 14:45:53;;;;;;;1.27;1.20;;;;;;;;;;5070962;28;20031;-38
2022/06/26 14:48:20;;;;;;;1.50;0.90;;;;;;;;;;5072225;28;20032;-38
2022/06/26 14:50:45;;;;;;;1.95;0.90;;;;;;;;;;5070898;28;20490;-38
2022/06/26 14:53:11;;;;;;;0.80;0.80;;;;;;;;;;5072135;28;20021;-43
2022/06/26 14:55:37;;;;;;;0.82;0.82;;;;;;;;;;5072368;28;20032;-38
2022/06/26 14:58:07;;;;;;;1.90;1.00;;;;;;;;;;5071910;28;20047;-37